Etta, Mississippi
Current Conditions -  °F | °C
As of 12:55 PM on Sunday 23 Nov 2014 (Local Time) from KUOX Reporting Station
Overcast Overcast  
Wind Chill: 59°   Ceiling: 600
Heat Index: 59°   Visibility: 10mi
Dew Point: 57°   Wind: 9mph
Humidity: 94%   Direction: 160°SSE
Pressure: 29.43"   Gusts: NA
Location:  34.47°N, 89.23°W
Report Text: KUOX 231855Z AUTO 16008KT 10SM OVC006 15/14 A2943 RMK AO2 PWINO PNO
Loading
Personal Weather Stations






























Interactive Weather Map New forecast layout! Learn more

10-Day Weather Forecast

Advertisements
Track Severe Weather on mobile